createdAt,value
2023-03-16T00:00:09.996Z,3.90
2023-03-16T00:06:18.345Z,4.00
2023-03-16T00:12:16.964Z,3.90
2023-03-16T00:18:09.941Z,3.80
2023-03-16T00:24:04.225Z,3.80
2023-03-16T00:29:59.034Z,3.70
2023-03-16T00:36:02.006Z,3.70
2023-03-16T00:41:58.711Z,3.60
2023-03-16T00:47:54.827Z,3.50
2023-03-16T00:53:48.664Z,3.50
2023-03-16T00:59:42.256Z,3.40
2023-03-16T01:05:41.895Z,3.40
2023-03-16T01:11:35.251Z,3.40
2023-03-16T01:17:29.016Z,3.50
2023-03-16T01:23:23.426Z,3.50
2023-03-16T01:29:16.413Z,3.40
2023-03-16T01:35:10.314Z,3.40
2023-03-16T01:41:06.218Z,3.40
2023-03-16T01:46:59.734Z,3.40
2023-03-16T01:52:53.211Z,3.50
2023-03-16T01:58:48.395Z,3.50
2023-03-16T02:04:47.871Z,3.50
2023-03-16T02:10:45.610Z,3.40
2023-03-16T02:16:42.063Z,3.30
2023-03-16T02:22:36.260Z,3.30
2023-03-16T02:28:34.998Z,3.20
2023-03-16T02:34:30.410Z,3.20
2023-03-16T02:40:26.293Z,3.20
2023-03-16T02:46:24.198Z,3.30
2023-03-16T02:52:20.083Z,3.20
2023-03-16T02:58:13.735Z,3.10
2023-03-16T03:04:07.631Z,3.20
2023-03-16T03:10:06.324Z,3.20
2023-03-16T03:16:00.521Z,3.10
2023-03-16T03:21:56.967Z,3.10
2023-03-16T03:27:54.885Z,3.10
2023-03-16T03:33:49.462Z,2.90
2023-03-16T03:39:43.108Z,2.80
2023-03-16T03:45:38.084Z,2.90
2023-03-16T03:51:32.004Z,2.90
2023-03-16T03:57:31.934Z,3.00
2023-03-16T04:03:26.490Z,2.70
2023-03-16T04:09:20.140Z,2.70
2023-03-16T04:15:13.841Z,2.60
2023-03-16T04:21:19.180Z,2.80
2023-03-16T04:27:14.363Z,2.70
2023-03-16T04:33:08.122Z,2.60
2023-03-16T04:39:03.055Z,2.50
2023-03-16T04:44:56.664Z,2.70
2023-03-16T04:50:50.414Z,2.60
2023-03-16T04:56:45.491Z,2.70
2023-03-16T05:02:47.671Z,2.60
2023-03-16T05:08:41.785Z,2.50
2023-03-16T05:14:36.379Z,2.60
2023-03-16T05:20:52.343Z,2.70
2023-03-16T05:26:46.249Z,2.60
2023-03-16T05:32:44.825Z,2.70
2023-03-16T05:38:40.017Z,2.80
2023-03-16T05:44:37.130Z,2.80
2023-03-16T05:50:57.850Z,2.70
2023-03-16T05:56:56.184Z,2.80
2023-03-16T06:02:52.696Z,2.90
2023-03-16T06:08:49.147Z,2.90
2023-03-16T06:14:43.572Z,3.00
2023-03-16T06:20:37.655Z,3.00
2023-03-16T06:26:32.265Z,3.00
2023-03-16T06:32:25.658Z,3.10
2023-03-16T06:38:19.599Z,3.20
2023-03-16T06:44:27.749Z,3.20
2023-03-16T06:50:32.747Z,3.40
2023-03-16T06:56:27.817Z,3.30
2023-03-16T07:02:23.531Z,3.40
2023-03-16T07:08:17.022Z,3.50
2023-03-16T07:14:10.245Z,3.50
2023-03-16T07:20:05.889Z,3.40
2023-03-16T07:25:59.385Z,3.40
2023-03-16T07:31:53.540Z,3.50
2023-03-16T07:37:51.582Z,3.60
2023-03-16T07:43:45.646Z,3.70
2023-03-16T07:49:42.070Z,3.80
2023-03-16T07:55:38.868Z,3.80
2023-03-16T08:01:34.738Z,3.90
2023-03-16T08:07:28.252Z,3.90
2023-03-16T08:13:37.112Z,4.00
2023-03-16T08:19:30.923Z,4.20
2023-03-16T08:25:26.979Z,4.30
2023-03-16T08:31:30.263Z,4.40
2023-03-16T08:37:32.111Z,4.50
2023-03-16T08:43:25.528Z,4.70
2023-03-16T08:49:21.469Z,4.70
2023-03-16T08:55:24.495Z,4.80
2023-03-16T09:01:19.512Z,5.00
2023-03-16T09:07:14.322Z,5.00
2023-03-16T09:13:07.347Z,5.20
2023-03-16T09:19:01.205Z,5.40
2023-03-16T09:24:56.001Z,5.60
2023-03-16T09:30:50.427Z,5.60
2023-03-16T09:36:43.868Z,5.90
2023-03-16T09:42:41.902Z,6.20
2023-03-16T09:48:37.223Z,6.40
2023-03-16T09:54:39.594Z,6.60
2023-03-16T10:00:39.888Z,6.80
2023-03-16T10:06:33.477Z,7.20
2023-03-16T10:12:32.332Z,7.90
2023-03-16T10:18:30.756Z,8.00
2023-03-16T10:24:38.134Z,8.20
2023-03-16T10:30:34.256Z,8.60
2023-03-16T10:36:33.470Z,8.60
2023-03-16T10:42:27.115Z,8.70
2023-03-16T10:48:22.182Z,9.00
2023-03-16T10:54:21.755Z,9.40
2023-03-16T11:00:23.203Z,10.00
2023-03-16T11:06:22.473Z,10.00
2023-03-16T11:12:25.146Z,9.80
2023-03-16T11:18:28.151Z,9.30
2023-03-16T11:24:27.155Z,9.10
2023-03-16T11:30:29.130Z,9.40
2023-03-16T11:36:39.536Z,9.80
2023-03-16T11:42:38.806Z,10.00
2023-03-16T11:48:39.015Z,10.20
2023-03-16T11:54:42.252Z,10.30
2023-03-16T12:00:51.575Z,10.50
2023-03-16T12:06:57.923Z,11.20
2023-03-16T12:13:01.703Z,11.50
2023-03-16T12:19:01.194Z,11.90
2023-03-16T12:24:55.987Z,12.10
2023-03-16T12:30:59.505Z,11.60
2023-03-16T12:37:01.980Z,11.70
2023-03-16T12:43:08.703Z,12.20
2023-03-16T12:49:05.839Z,12.00
2023-03-16T12:55:13.726Z,11.70
2023-03-16T13:01:11.661Z,12.20
2023-03-16T13:07:09.561Z,11.50
2023-03-16T13:13:11.557Z,11.10
2023-03-16T13:19:26.406Z,11.40
2023-03-16T13:25:23.397Z,11.30
2023-03-16T13:31:27.432Z,11.70
2023-03-16T13:37:24.475Z,11.60
2023-03-16T13:43:19.130Z,11.80
2023-03-16T13:49:13.316Z,11.90
2023-03-16T13:55:17.832Z,11.50
2023-03-16T14:01:21.338Z,10.90
2023-03-16T14:07:19.696Z,10.60
2023-03-16T14:13:33.993Z,10.30
2023-03-16T14:19:35.928Z,10.00
2023-03-16T14:25:29.693Z,9.90
2023-03-16T14:31:33.859Z,9.70
2023-03-16T14:37:35.831Z,9.60
2023-03-16T14:43:33.554Z,9.50
2023-03-16T14:49:30.292Z,9.40
2023-03-16T14:55:26.145Z,9.30
2023-03-16T15:01:19.676Z,9.40
2023-03-16T15:07:25.458Z,9.40
2023-03-16T15:13:34.814Z,9.40
2023-03-16T15:19:27.824Z,9.30
2023-03-16T15:25:26.461Z,9.30
2023-03-16T15:31:19.846Z,9.20
2023-03-16T15:37:14.928Z,9.20
2023-03-16T15:43:12.745Z,9.10
2023-03-16T15:49:06.116Z,9.00
2023-03-16T15:55:04.745Z,9.00
2023-03-16T16:01:00.677Z,8.90
2023-03-16T16:06:55.301Z,8.90
2023-03-16T16:12:52.518Z,8.90
2023-03-16T16:18:48.265Z,8.80
2023-03-16T16:24:41.708Z,8.80
2023-03-16T16:30:34.828Z,8.70
2023-03-16T16:36:32.271Z,8.80
2023-03-16T16:42:26.009Z,8.70
2023-03-16T16:48:30.189Z,8.70
2023-03-16T16:54:26.992Z,8.70
2023-03-16T17:00:24.530Z,8.60
2023-03-16T17:06:20.195Z,8.60
2023-03-16T17:12:18.252Z,8.60
2023-03-16T17:18:14.027Z,8.50
2023-03-16T17:24:07.747Z,8.50
2023-03-16T17:30:02.741Z,8.40
2023-03-16T17:35:56.416Z,8.40
2023-03-16T17:41:58.500Z,8.40
2023-03-16T17:47:53.706Z,8.30
2023-03-16T17:53:46.950Z,8.30
2023-03-16T17:59:40.966Z,8.30
2023-03-16T18:05:36.685Z,8.20
2023-03-16T18:11:34.111Z,8.20
2023-03-16T18:17:30.061Z,8.20
2023-03-16T18:23:26.507Z,8.20
2023-03-16T18:29:20.308Z,8.10
2023-03-16T18:35:15.566Z,8.10
2023-03-16T18:41:17.123Z,8.10
2023-03-16T18:47:15.774Z,8.00
2023-03-16T18:53:15.974Z,8.00
2023-03-16T18:59:10.972Z,8.00
2023-03-16T19:05:05.984Z,8.00
2023-03-16T19:11:01.550Z,8.00
2023-03-16T19:16:56.622Z,7.90
2023-03-16T19:22:52.135Z,7.90
2023-03-16T19:28:46.894Z,7.80
2023-03-16T19:34:41.423Z,7.90
2023-03-16T19:40:34.480Z,7.80
2023-03-16T19:46:28.363Z,7.80
2023-03-16T19:52:22.920Z,7.70
2023-03-16T19:58:22.100Z,7.70
2023-03-16T20:04:18.361Z,7.70
2023-03-16T20:10:18.558Z,7.60
2023-03-16T20:16:16.667Z,7.60
2023-03-16T20:22:18.132Z,7.60
2023-03-16T20:28:18.700Z,7.50
2023-03-16T20:34:22.325Z,7.50
2023-03-16T20:40:15.967Z,7.50
2023-03-16T20:46:17.363Z,7.50
2023-03-16T20:52:17.692Z,7.50
2023-03-16T20:58:20.713Z,7.50
2023-03-16T21:04:22.389Z,7.50
2023-03-16T21:10:18.079Z,7.50
2023-03-16T21:16:12.496Z,7.40
2023-03-16T21:22:23.413Z,7.40
2023-03-16T21:28:19.104Z,7.40
2023-03-16T21:34:23.695Z,7.40
2023-03-16T21:40:20.763Z,7.30
2023-03-16T21:46:18.373Z,7.40
2023-03-16T21:52:23.515Z,7.30
2023-03-16T21:58:18.386Z,7.30
2023-03-16T22:04:17.251Z,7.30
2023-03-16T22:10:15.982Z,7.30
2023-03-16T22:16:16.079Z,7.30
2023-03-16T22:22:14.677Z,7.30
2023-03-16T22:28:12.581Z,7.20
2023-03-16T22:34:07.629Z,7.20
2023-03-16T22:40:02.883Z,7.20
2023-03-16T22:45:56.933Z,7.20
2023-03-16T22:51:52.720Z,7.20
2023-03-16T22:57:46.783Z,7.20
2023-03-16T23:03:39.815Z,7.20
2023-03-16T23:09:34.348Z,7.10
2023-03-16T23:15:30.762Z,7.20
2023-03-16T23:21:27.996Z,7.10
2023-03-16T23:27:24.121Z,7.10
2023-03-16T23:33:17.877Z,7.10
2023-03-16T23:39:12.087Z,7.10
2023-03-16T23:45:11.213Z,7.10
2023-03-16T23:51:04.539Z,7.10
2023-03-16T23:56:58.341Z,7.00
